sensor_id;sensor_type;location;lat;lon;timestamp;pressure;altitude;pressure_sealevel;temperature;humidity
22688;BME280;11511;51.514;7.080;2024-01-16T00:00:32;100333.94;;;-0.35;100.00
22688;BME280;11511;51.514;7.080;2024-01-16T00:02:58;100331.38;;;-0.33;100.00
22688;BME280;11511;51.514;7.080;2024-01-16T00:05:23;100338.28;;;-0.32;100.00
22688;BME280;11511;51.514;7.080;2024-01-16T00:07:49;100339.13;;;-0.31;100.00
22688;BME280;11511;51.514;7.080;2024-01-16T00:10:14;100339.16;;;-0.28;100.00
22688;BME280;11511;51.514;7.080;2024-01-16T00:12:41;100346.03;;;-0.29;100.00
22688;BME280;11511;51.514;7.080;2024-01-16T00:15:06;100337.41;;;-0.29;100.00
22688;BME280;11511;51.514;7.080;2024-01-16T00:17:32;100337.41;;;-0.36;100.00
22688;BME280;11511;51.514;7.080;2024-01-16T00:19:58;100345.13;;;-0.40;100.00
22688;BME280;11511;51.514;7.080;2024-01-16T00:22:27;100342.56;;;-0.37;100.00
22688;BME280;11511;51.514;7.080;2024-01-16T00:24:53;100352.94;;;-0.34;100.00
22688;BME280;11511;51.514;7.080;2024-01-16T00:27:22;100342.59;;;-0.32;100.00
22688;BME280;11511;51.514;7.080;2024-01-16T00:29:47;100342.56;;;-0.34;100.00
22688;BME280;11511;51.514;7.080;2024-01-16T00:32:13;100343.44;;;-0.33;100.00
22688;BME280;11511;51.514;7.080;2024-01-16T00:34:41;100345.16;;;-0.39;100.00
22688;BME280;11511;51.514;7.080;2024-01-16T00:37:07;100354.63;;;-0.39;100.00
22688;BME280;11511;51.514;7.080;2024-01-16T00:39:32;100355.50;;;-0.36;100.00
22688;BME280;11511;51.514;7.080;2024-01-16T00:41:58;100362.41;;;-0.36;100.00
22688;BME280;11511;51.514;7.080;2024-01-16T00:44:24;100358.97;;;-0.33;100.00
22688;BME280;11511;51.514;7.080;2024-01-16T00:46:49;100354.66;;;-0.35;100.00
22688;BME280;11511;51.514;7.080;2024-01-16T00:49:15;100362.41;;;-0.38;100.00
22688;BME280;11511;51.514;7.080;2024-01-16T00:51:40;100368.44;;;-0.36;100.00
22688;BME280;11511;51.514;7.080;2024-01-16T00:54:06;100366.72;;;-0.33;100.00
22688;BME280;11511;51.514;7.080;2024-01-16T00:56:33;100359.81;;;-0.35;100.00
22688;BME280;11511;51.514;7.080;2024-01-16T00:58:59;100371.88;;;-0.37;100.00
22688;BME280;11511;51.514;7.080;2024-01-16T01:01:25;100371.88;;;-0.41;100.00
22688;BME280;11511;51.514;7.080;2024-01-16T01:03:51;100374.41;;;-0.47;100.00
22688;BME280;11511;51.514;7.080;2024-01-16T01:06:16;100373.59;;;-0.42;100.00
22688;BME280;11511;51.514;7.080;2024-01-16T01:08:42;100378.75;;;-0.42;100.00
22688;BME280;11511;51.514;7.080;2024-01-16T01:11:08;100378.75;;;-0.42;100.00
22688;BME280;11511;51.514;7.080;2024-01-16T01:13:33;100384.78;;;-0.43;100.00
22688;BME280;11511;51.514;7.080;2024-01-16T01:15:59;100384.81;;;-0.40;100.00
22688;BME280;11511;51.514;7.080;2024-01-16T01:18:25;100386.56;;;-0.37;100.00
22688;BME280;11511;51.514;7.080;2024-01-16T01:20:50;100391.72;;;-0.37;100.00
22688;BME280;11511;51.514;7.080;2024-01-16T01:23:16;100383.09;;;-0.41;100.00
22688;BME280;11511;51.514;7.080;2024-01-16T01:25:42;100393.44;;;-0.39;100.00
22688;BME280;11511;51.514;7.080;2024-01-16T01:28:08;100394.25;;;-0.46;100.00
22688;BME280;11511;51.514;7.080;2024-01-16T01:30:34;100398.56;;;-0.47;100.00
22688;BME280;11511;51.514;7.080;2024-01-16T01:32:59;100402.91;;;-0.43;100.00
22688;BME280;11511;51.514;7.080;2024-01-16T01:35:25;100400.31;;;-0.44;100.00
22688;BME280;11511;51.514;7.080;2024-01-16T01:37:51;100399.47;;;-0.42;100.00
22688;BME280;11511;51.514;7.080;2024-01-16T01:40:17;100407.19;;;-0.46;100.00
22688;BME280;11511;51.514;7.080;2024-01-16T01:42:42;100415.81;;;-0.46;100.00
22688;BME280;11511;51.514;7.080;2024-01-16T01:45:11;100413.25;;;-0.46;100.00
22688;BME280;11511;51.514;7.080;2024-01-16T01:47:38;100406.31;;;-0.50;100.00
22688;BME280;11511;51.514;7.080;2024-01-16T01:50:05;100413.25;;;-0.44;100.00
22688;BME280;11511;51.514;7.080;2024-01-16T01:52:31;100410.63;;;-0.47;100.00
22688;BME280;11511;51.514;7.080;2024-01-16T01:54:57;100408.03;;;-0.49;100.00
22688;BME280;11511;51.514;7.080;2024-01-16T01:57:23;100412.34;;;-0.49;100.00
22688;BME280;11511;51.514;7.080;2024-01-16T01:59:50;100410.63;;;-0.49;100.00
22688;BME280;11511;51.514;7.080;2024-01-16T02:02:15;100416.69;;;-0.47;100.00
22688;BME280;11511;51.514;7.080;2024-01-16T02:04:42;100410.63;;;-0.50;100.00
22688;BME280;11511;51.514;7.080;2024-01-16T02:07:11;100411.50;;;-0.48;100.00
22688;BME280;11511;51.514;7.080;2024-01-16T02:09:37;100406.34;;;-0.47;100.00
22688;BME280;11511;51.514;7.080;2024-01-16T02:12:03;100408.06;;;-0.44;100.00
22688;BME280;11511;51.514;7.080;2024-01-16T02:14:28;100412.34;;;-0.49;100.00
22688;BME280;11511;51.514;7.080;2024-01-16T02:16:54;100419.22;;;-0.57;100.00
22688;BME280;11511;51.514;7.080;2024-01-16T02:19:20;100420.94;;;-0.62;100.00
22688;BME280;11511;51.514;7.080;2024-01-16T02:21:49;100423.50;;;-0.65;100.00
22688;BME280;11511;51.514;7.080;2024-01-16T02:24:17;100432.91;;;-0.75;100.00
22688;BME280;11511;51.514;7.080;2024-01-16T02:26:43;100428.56;;;-0.79;100.00
22688;BME280;11511;51.514;7.080;2024-01-16T02:29:09;100420.81;;;-0.79;100.00
22688;BME280;11511;51.514;7.080;2024-01-16T02:31:35;100420.78;;;-0.81;100.00
22688;BME280;11511;51.514;7.080;2024-01-16T02:34:01;100427.78;;;-0.66;100.00
22688;BME280;11511;51.514;7.080;2024-01-16T02:36:27;100419.16;;;-0.70;100.00
22688;BME280;11511;51.514;7.080;2024-01-16T02:38:54;100416.59;;;-0.66;100.00
22688;BME280;11511;51.514;7.080;2024-01-16T02:41:20;100416.53;;;-0.73;100.00
22688;BME280;11511;51.514;7.080;2024-01-16T02:43:46;100426.00;;;-0.78;100.00
22688;BME280;11511;51.514;7.080;2024-01-16T02:46:11;100419.13;;;-0.73;100.00
22688;BME280;11511;51.514;7.080;2024-01-16T02:48:37;100424.34;;;-0.66;100.00
22688;BME280;11511;51.514;7.080;2024-01-16T02:51:03;100418.34;;;-0.62;100.00
22688;BME280;11511;51.514;7.080;2024-01-16T02:53:32;100417.47;;;-0.63;100.00
22688;BME280;11511;51.514;7.080;2024-01-16T02:55:57;100413.97;;;-0.70;100.00
22688;BME280;11511;51.514;7.080;2024-01-16T02:58:29;100414.81;;;-0.75;100.00
22688;BME280;11511;51.514;7.080;2024-01-16T03:00:54;100415.56;;;-0.93;100.00
22688;BME280;11511;51.514;7.080;2024-01-16T03:03:20;100411.28;;;-0.89;100.00
22688;BME280;11511;51.514;7.080;2024-01-16T03:05:46;100422.44;;;-0.93;100.00
22688;BME280;11511;51.514;7.080;2024-01-16T03:08:18;100421.66;;;-0.82;100.00
22688;BME280;11511;51.514;7.080;2024-01-16T03:10:44;100418.25;;;-0.75;100.00
22688;BME280;11511;51.514;7.080;2024-01-16T03:13:10;100421.75;;;-0.68;100.00
22688;BME280;11511;51.514;7.080;2024-01-16T03:15:35;100414.84;;;-0.68;100.00
22688;BME280;11511;51.514;7.080;2024-01-16T03:18:01;100414.88;;;-0.64;100.00
22688;BME280;11511;51.514;7.080;2024-01-16T03:20:28;100411.41;;;-0.65;100.00
22688;BME280;11511;51.514;7.080;2024-01-16T03:22:54;100414.00;;;-0.68;100.00
22688;BME280;11511;51.514;7.080;2024-01-16T03:25:20;100416.63;;;-0.60;100.00
22688;BME280;11511;51.514;7.080;2024-01-16T03:27:46;100416.66;;;-0.51;100.00
22688;BME280;11511;51.514;7.080;2024-01-16T03:30:13;100413.22;;;-0.55;100.00
22688;BME280;11511;51.514;7.080;2024-01-16T03:32:39;100414.91;;;-0.52;100.00
22688;BME280;11511;51.514;7.080;2024-01-16T03:35:05;100413.19;;;-0.61;100.00
22688;BME280;11511;51.514;7.080;2024-01-16T03:37:31;100414.06;;;-0.56;100.00
22688;BME280;11511;51.514;7.080;2024-01-16T03:39:58;100420.94;;;-0.53;100.00
22688;BME280;11511;51.514;7.080;2024-01-16T03:42:23;100414.94;;;-0.57;100.00
22688;BME280;11511;51.514;7.080;2024-01-16T03:44:49;100414.06;;;-0.50;100.00
22688;BME280;11511;51.514;7.080;2024-01-16T03:47:15;100404.59;;;-0.48;100.00
22688;BME280;11511;51.514;7.080;2024-01-16T03:49:41;100418.41;;;-0.44;100.00
22688;BME280;11511;51.514;7.080;2024-01-16T03:52:06;100421.88;;;-0.44;100.00
22688;BME280;11511;51.514;7.080;2024-01-16T03:54:32;100415.84;;;-0.43;100.00
22688;BME280;11511;51.514;7.080;2024-01-16T03:56:58;100425.34;;;-0.40;100.00
22688;BME280;11511;51.514;7.080;2024-01-16T03:59:25;100428.78;;;-0.40;100.00
22688;BME280;11511;51.514;7.080;2024-01-16T04:01:51;100426.19;;;-0.43;100.00
22688;BME280;11511;51.514;7.080;2024-01-16T04:04:17;100419.28;;;-0.42;100.00
22688;BME280;11511;51.514;7.080;2024-01-16T04:06:43;100428.78;;;-0.41;100.00
22688;BME280;11511;51.514;7.080;2024-01-16T04:09:08;100426.22;;;-0.40;100.00
22688;BME280;11511;51.514;7.080;2024-01-16T04:11:34;100428.78;;;-0.41;100.00
22688;BME280;11511;51.514;7.080;2024-01-16T04:14:02;100419.31;;;-0.39;100.00
22688;BME280;11511;51.514;7.080;2024-01-16T04:16:29;100416.75;;;-0.38;100.00
22688;BME280;11511;51.514;7.080;2024-01-16T04:18:54;100415.00;;;-0.39;100.00
22688;BME280;11511;51.514;7.080;2024-01-16T04:21:22;100415.00;;;-0.37;100.00
22688;BME280;11511;51.514;7.080;2024-01-16T04:23:48;100414.16;;;-0.38;100.00
22688;BME280;11511;51.514;7.080;2024-01-16T04:26:14;100412.41;;;-0.42;100.00
22688;BME280;11511;51.514;7.080;2024-01-16T04:28:39;100417.59;;;-0.40;100.00
22688;BME280;11511;51.514;7.080;2024-01-16T04:31:05;100412.41;;;-0.40;100.00
22688;BME280;11511;51.514;7.080;2024-01-16T04:33:31;100413.28;;;-0.40;100.00
22688;BME280;11511;51.514;7.080;2024-01-16T04:35:58;100406.34;;;-0.42;100.00
22688;BME280;11511;51.514;7.080;2024-01-16T04:38:24;100410.69;;;-0.38;100.00
22688;BME280;11511;51.514;7.080;2024-01-16T04:40:49;100408.97;;;-0.38;100.00
22688;BME280;11511;51.514;7.080;2024-01-16T04:43:15;100407.25;;;-0.37;100.00
22688;BME280;11511;51.514;7.080;2024-01-16T04:45:40;100408.13;;;-0.37;100.00
22688;BME280;11511;51.514;7.080;2024-01-16T04:48:06;100406.41;;;-0.35;100.00
22688;BME280;11511;51.514;7.080;2024-01-16T04:50:32;100409.00;;;-0.33;100.00
22688;BME280;11511;51.514;7.080;2024-01-16T04:52:57;100416.78;;;-0.30;100.00
22688;BME280;11511;51.514;7.080;2024-01-16T04:55:25;100407.28;;;-0.31;100.00
22688;BME280;11511;51.514;7.080;2024-01-16T04:57:52;100412.47;;;-0.31;100.00
22688;BME280;11511;51.514;7.080;2024-01-16T05:00:17;100405.56;;;-0.30;100.00
22688;BME280;11511;51.514;7.080;2024-01-16T05:02:44;100402.13;;;-0.28;100.00
22688;BME280;11511;51.514;7.080;2024-01-16T05:05:09;100403.84;;;-0.28;100.00
22688;BME280;11511;51.514;7.080;2024-01-16T05:07:35;100403.00;;;-0.27;100.00
22688;BME280;11511;51.514;7.080;2024-01-16T05:10:01;100392.63;;;-0.32;100.00
22688;BME280;11511;51.514;7.080;2024-01-16T05:12:27;100394.34;;;-0.32;100.00
22688;BME280;11511;51.514;7.080;2024-01-16T05:14:52;100389.16;;;-0.32;100.00
22688;BME280;11511;51.514;7.080;2024-01-16T05:17:18;100383.13;;;-0.33;100.00
22688;BME280;11511;51.514;7.080;2024-01-16T05:19:44;100390.03;;;-0.29;100.00
22688;BME280;11511;51.514;7.080;2024-01-16T05:22:10;100384.88;;;-0.27;100.00
22688;BME280;11511;51.514;7.080;2024-01-16T05:24:36;100389.16;;;-0.26;100.00
22688;BME280;11511;51.514;7.080;2024-01-16T05:27:02;100385.72;;;-0.27;100.00
22688;BME280;11511;51.514;7.080;2024-01-16T05:29:29;100383.97;;;-0.26;100.00
22688;BME280;11511;51.514;7.080;2024-01-16T05:31:55;100376.22;;;-0.31;100.00
22688;BME280;11511;51.514;7.080;2024-01-16T05:34:20;100387.44;;;-0.33;100.00
22688;BME280;11511;51.514;7.080;2024-01-16T05:36:46;100383.97;;;-0.37;100.00
22688;BME280;11511;51.514;7.080;2024-01-16T05:39:11;100381.38;;;-0.36;100.00
22688;BME280;11511;51.514;7.080;2024-01-16T05:41:37;100380.47;;;-0.45;100.00
22688;BME280;11511;51.514;7.080;2024-01-16T05:44:03;100378.75;;;-0.45;100.00
22688;BME280;11511;51.514;7.080;2024-01-16T05:46:31;100377.84;;;-0.50;100.00
22688;BME280;11511;51.514;7.080;2024-01-16T05:48:57;100377.88;;;-0.45;100.00
22688;BME280;11511;51.514;7.080;2024-01-16T05:51:23;100377.03;;;-0.46;100.00
22688;BME280;11511;51.514;7.080;2024-01-16T05:53:49;100375.28;;;-0.56;100.00
22688;BME280;11511;51.514;7.080;2024-01-16T05:56:15;100377.81;;;-0.63;100.00
22688;BME280;11511;51.514;7.080;2024-01-16T05:58:40;100377.78;;;-0.66;100.00
22688;BME280;11511;51.514;7.080;2024-01-16T06:01:06;100370.94;;;-0.58;100.00
22688;BME280;11511;51.514;7.080;2024-01-16T06:03:32;100370.94;;;-0.58;100.00
22688;BME280;11511;51.514;7.080;2024-01-16T06:05:58;100378.69;;;-0.58;100.00
22688;BME280;11511;51.514;7.080;2024-01-16T06:08:23;100371.75;;;-0.65;100.00
22688;BME280;11511;51.514;7.080;2024-01-16T06:10:49;100370.84;;;-0.72;100.00
22688;BME280;11511;51.514;7.080;2024-01-16T06:13:14;100373.44;;;-0.75;100.00
22688;BME280;11511;51.514;7.080;2024-01-16T06:15:40;100369.94;;;-0.82;100.00
22688;BME280;11511;51.514;7.080;2024-01-16T06:18:05;100372.53;;;-0.80;100.00
22688;BME280;11511;51.514;7.080;2024-01-16T06:20:31;100376.91;;;-0.72;100.00
22688;BME280;11511;51.514;7.080;2024-01-16T06:22:58;100363.16;;;-0.60;100.00
22688;BME280;11511;51.514;7.080;2024-01-16T06:25:23;100378.69;;;-0.60;100.00
22688;BME280;11511;51.514;7.080;2024-01-16T06:27:49;100364.88;;;-0.62;100.00
22688;BME280;11511;51.514;7.080;2024-01-16T06:30:15;100370.06;;;-0.62;100.00
22688;BME280;11511;51.514;7.080;2024-01-16T06:32:40;100375.25;;;-0.54;100.00
22688;BME280;11511;51.514;7.080;2024-01-16T06:35:06;100376.13;;;-0.51;100.00
22688;BME280;11511;51.514;7.080;2024-01-16T06:37:33;100377.00;;;-0.55;100.00
22688;BME280;11511;51.514;7.080;2024-01-16T06:39:59;100378.72;;;-0.55;100.00
22688;BME280;11511;51.514;7.080;2024-01-16T06:42:24;100374.38;;;-0.61;100.00
22688;BME280;11511;51.514;7.080;2024-01-16T06:44:50;100382.16;;;-0.53;100.00
22688;BME280;11511;51.514;7.080;2024-01-16T06:47:16;100380.44;;;-0.48;100.00
22688;BME280;11511;51.514;7.080;2024-01-16T06:49:41;100378.72;;;-0.49;100.00
22688;BME280;11511;51.514;7.080;2024-01-16T06:52:08;100385.59;;;-0.51;100.00
22688;BME280;11511;51.514;7.080;2024-01-16T06:54:34;100378.69;;;-0.54;100.00
22688;BME280;11511;51.514;7.080;2024-01-16T06:56:59;100377.84;;;-0.57;100.00
22688;BME280;11511;51.514;7.080;2024-01-16T06:59:25;100377.84;;;-0.53;100.00
22688;BME280;11511;51.514;7.080;2024-01-16T07:01:51;100383.03;;;-0.56;100.00
22688;BME280;11511;51.514;7.080;2024-01-16T07:04:17;100387.34;;;-0.52;100.00
22688;BME280;11511;51.514;7.080;2024-01-16T07:06:43;100386.47;;;-0.51;100.00
22688;BME280;11511;51.514;7.080;2024-01-16T07:09:09;100393.34;;;-0.54;100.00
22688;BME280;11511;51.514;7.080;2024-01-16T07:11:38;100387.31;;;-0.61;100.00
22688;BME280;11511;51.514;7.080;2024-01-16T07:14:06;100394.16;;;-0.66;100.00
22688;BME280;11511;51.514;7.080;2024-01-16T07:16:33;100397.59;;;-0.72;100.00
22688;BME280;11511;51.514;7.080;2024-01-16T07:18:58;100404.53;;;-0.66;100.00
22688;BME280;11511;51.514;7.080;2024-01-16T07:21:24;100401.06;;;-0.65;100.00
22688;BME280;11511;51.514;7.080;2024-01-16T07:23:50;100402.81;;;-0.61;100.00
22688;BME280;11511;51.514;7.080;2024-01-16T07:26:15;100410.56;;;-0.65;100.00
22688;BME280;11511;51.514;7.080;2024-01-16T07:28:41;100414.81;;;-0.72;100.00
22688;BME280;11511;51.514;7.080;2024-01-16T07:31:07;100418.28;;;-0.70;100.00
22688;BME280;11511;51.514;7.080;2024-01-16T07:33:34;100415.72;;;-0.67;100.00
22688;BME280;11511;51.514;7.080;2024-01-16T07:36:01;100420.88;;;-0.70;100.00
22688;BME280;11511;51.514;7.080;2024-01-16T07:38:26;100425.16;;;-0.75;100.00
22688;BME280;11511;51.514;7.080;2024-01-16T07:40:52;100427.72;;;-0.75;100.00
22688;BME280;11511;51.514;7.080;2024-01-16T07:43:17;100428.59;;;-0.76;100.00
22688;BME280;11511;51.514;7.080;2024-01-16T07:45:43;100428.56;;;-0.79;100.00
22688;BME280;11511;51.514;7.080;2024-01-16T07:48:08;100430.28;;;-0.83;100.00
22688;BME280;11511;51.514;7.080;2024-01-16T07:50:34;100433.72;;;-0.84;100.00
22688;BME280;11511;51.514;7.080;2024-01-16T07:52:59;100435.41;;;-0.89;100.00
22688;BME280;11511;51.514;7.080;2024-01-16T07:55:25;100429.38;;;-0.88;100.00
22688;BME280;11511;51.514;7.080;2024-01-16T07:57:53;100427.66;;;-0.89;100.00
22688;BME280;11511;51.514;7.080;2024-01-16T08:00:19;100427.66;;;-0.87;100.00
22688;BME280;11511;51.514;7.080;2024-01-16T08:02:45;100430.25;;;-0.89;100.00
22688;BME280;11511;51.514;7.080;2024-01-16T08:05:10;100434.50;;;-0.94;100.00
22688;BME280;11511;51.514;7.080;2024-01-16T08:07:36;100432.78;;;-0.93;100.00
22688;BME280;11511;51.514;7.080;2024-01-16T08:10:02;100429.34;;;-0.92;100.00
22688;BME280;11511;51.514;7.080;2024-01-16T08:12:28;100442.25;;;-0.94;100.00
22688;BME280;11511;51.514;7.080;2024-01-16T08:14:53;100438.81;;;-0.93;100.00
22688;BME280;11511;51.514;7.080;2024-01-16T08:17:19;100435.41;;;-0.89;100.00
22688;BME280;11511;51.514;7.080;2024-01-16T08:19:45;100434.59;;;-0.83;100.00
22688;BME280;11511;51.514;7.080;2024-01-16T08:22:10;100425.94;;;-0.87;100.00
22688;BME280;11511;51.514;7.080;2024-01-16T08:24:36;100426.81;;;-0.85;100.00
22688;BME280;11511;51.514;7.080;2024-01-16T08:27:01;100422.53;;;-0.84;100.00
22688;BME280;11511;51.514;7.080;2024-01-16T08:29:28;100423.38;;;-0.87;100.00
22688;BME280;11511;51.514;7.080;2024-01-16T08:31:53;100420.78;;;-0.81;100.00
22688;BME280;11511;51.514;7.080;2024-01-16T08:34:19;100414.75;;;-0.87;100.00
22688;BME280;11511;51.514;7.080;2024-01-16T08:36:44;100416.50;;;-0.85;100.00
22688;BME280;11511;51.514;7.080;2024-01-16T08:39:10;100425.97;;;-0.84;100.00
22688;BME280;11511;51.514;7.080;2024-01-16T08:41:36;100428.56;;;-0.79;100.00
22688;BME280;11511;51.514;7.080;2024-01-16T08:44:01;100431.16;;;-0.84;100.00
22688;BME280;11511;51.514;7.080;2024-01-16T08:46:27;100426.84;;;-0.77;100.00
22688;BME280;11511;51.514;7.080;2024-01-16T08:48:53;100427.75;;;-0.74;100.00
22688;BME280;11511;51.514;7.080;2024-01-16T08:51:19;100427.78;;;-0.68;100.00
22688;BME280;11511;51.514;7.080;2024-01-16T08:53:45;100431.25;;;-0.67;100.00
22688;BME280;11511;51.514;7.080;2024-01-16T08:56:11;100438.13;;;-0.68;100.00
22688;BME280;11511;51.514;7.080;2024-01-16T08:58:40;100431.22;;;-0.69;100.00
22688;BME280;11511;51.514;7.080;2024-01-16T09:01:05;100430.38;;;-0.68;100.00
22688;BME280;11511;51.514;7.080;2024-01-16T09:03:32;100430.31;;;-0.75;100.00
22688;BME280;11511;51.514;7.080;2024-01-16T09:05:58;100435.53;;;-0.68;100.00
22688;BME280;11511;51.514;7.080;2024-01-16T09:08:24;100430.34;;;-0.69;100.00
22688;BME280;11511;51.514;7.080;2024-01-16T09:10:51;100432.97;;;-0.68;100.00
22688;BME280;11511;51.514;7.080;2024-01-16T09:13:17;100439.00;;;-0.67;100.00
22688;BME280;11511;51.514;7.080;2024-01-16T09:15:43;100432.16;;;-0.59;100.00
22688;BME280;11511;51.514;7.080;2024-01-16T09:18:08;100427.81;;;-0.63;100.00
22688;BME280;11511;51.514;7.080;2024-01-16T09:20:34;100426.97;;;-0.59;100.00
22688;BME280;11511;51.514;7.080;2024-01-16T09:22:59;100430.44;;;-0.54;100.00
22688;BME280;11511;51.514;7.080;2024-01-16T09:25:25;100417.53;;;-0.48;100.00
22688;BME280;11511;51.514;7.080;2024-01-16T09:27:52;100420.22;;;-0.32;100.00
22688;BME280;11511;51.514;7.080;2024-01-16T09:30:18;100421.91;;;-0.41;100.00
22688;BME280;11511;51.514;7.080;2024-01-16T09:32:44;100418.44;;;-0.43;100.00
22688;BME280;11511;51.514;7.080;2024-01-16T09:35:10;100414.13;;;-0.41;100.00
22688;BME280;11511;51.514;7.080;2024-01-16T09:37:36;100414.19;;;-0.24;100.00
22688;BME280;11511;51.514;7.080;2024-01-16T09:40:02;100417.66;;;-0.22;100.00
22688;BME280;11511;51.514;7.080;2024-01-16T09:42:30;100404.72;;;-0.19;100.00
22688;BME280;11511;51.514;7.080;2024-01-16T09:44:55;100400.41;;;-0.27;100.00
22688;BME280;11511;51.514;7.080;2024-01-16T09:47:22;100404.66;;;-0.36;100.00
22688;BME280;11511;51.514;7.080;2024-01-16T09:49:47;100405.53;;;-0.33;100.00
22688;BME280;11511;51.514;7.080;2024-01-16T09:52:14;100406.44;;;-0.22;100.00
22688;BME280;11511;51.514;7.080;2024-01-16T09:54:39;100414.28;;;-0.03;100.00
22688;BME280;11511;51.514;7.080;2024-01-16T09:57:04;100409.06;;;-0.12;100.00
22688;BME280;11511;51.514;7.080;2024-01-16T09:59:31;100410.81;;;-0.08;100.00
22688;BME280;11511;51.514;7.080;2024-01-16T10:01:58;100411.66;;;-0.13;100.00
22688;BME280;11511;51.514;7.080;2024-01-16T10:04:26;100411.69;;;0.02;100.00
22688;BME280;11511;51.514;7.080;2024-01-16T10:06:53;100414.31;;;0.08;100.00
22688;BME280;11511;51.514;7.080;2024-01-16T10:09:20;100406.53;;;-0.01;100.00
22688;BME280;11511;51.514;7.080;2024-01-16T10:11:46;100410.00;;;0.09;100.00
22688;BME280;11511;51.514;7.080;2024-01-16T10:14:12;100401.34;;;-0.01;100.00
22688;BME280;11511;51.514;7.080;2024-01-16T10:19:23;100407.47;;;0.48;100.00
22688;BME280;11511;51.514;7.080;2024-01-16T10:21:50;100399.69;;;0.60;100.00
22688;BME280;11511;51.514;7.080;2024-01-16T10:24:18;100404.00;;;0.55;100.00
22688;BME280;11511;51.514;7.080;2024-01-16T10:26:43;100399.66;;;0.30;100.00
22688;BME280;11511;51.514;7.080;2024-01-16T10:29:09;100393.66;;;0.42;100.00
22688;BME280;11511;51.514;7.080;2024-01-16T10:31:34;100392.78;;;0.58;100.00
22688;BME280;11511;51.514;7.080;2024-01-16T10:34:00;100391.94;;;0.71;100.00
22688;BME280;11511;51.514;7.080;2024-01-16T10:36:26;100386.75;;;0.51;100.00
22688;BME280;11511;51.514;7.080;2024-01-16T10:38:52;100371.19;;;0.74;100.00
22688;BME280;11511;51.514;7.080;2024-01-16T10:41:27;100376.41;;;0.80;100.00
22688;BME280;11511;51.514;7.080;2024-01-16T10:44:03;100374.47;;;1.57;100.00
22688;BME280;11511;51.514;7.080;2024-01-16T10:46:29;100360.63;;;3.66;100.00
22688;BME280;11511;51.514;7.080;2024-01-16T10:48:59;100371.19;;;5.23;100.00
22688;BME280;11511;51.514;7.080;2024-01-16T10:51:28;100364.94;;;5.31;100.00
22688;BME280;11511;51.514;7.080;2024-01-16T10:53:59;100371.19;;;5.23;100.00
22688;BME280;11511;51.514;7.080;2024-01-16T10:56:28;100362.41;;;4.79;100.00
22688;BME280;11511;51.514;7.080;2024-01-16T11:01:58;100378.00;;;5.31;100.00
22688;BME280;11511;51.514;7.080;2024-01-16T11:04:25;100366.97;;;5.62;100.00
22688;BME280;11511;51.514;7.080;2024-01-16T11:06:54;100359.47;;;7.63;100.00
22688;BME280;11511;51.514;7.080;2024-01-16T11:09:20;100359.94;;;8.62;100.00
22688;BME280;11511;51.514;7.080;2024-01-16T11:11:46;100354.06;;;5.97;100.00
22688;BME280;11511;51.514;7.080;2024-01-16T11:14:12;100360.84;;;4.14;100.00
22688;BME280;11511;51.514;7.080;2024-01-16T11:16:38;100357.84;;;5.81;100.00
22688;BME280;11511;51.514;7.080;2024-01-16T11:19:04;100348.63;;;7.75;100.00
22688;BME280;11511;51.514;7.080;2024-01-16T11:21:33;100363.56;;;5.14;100.00
22688;BME280;11511;51.514;7.080;2024-01-16T11:23:59;100369.66;;;6.39;100.00
22688;BME280;11511;51.514;7.080;2024-01-16T11:26:32;100365.19;;;4.12;100.00
22688;BME280;11511;51.514;7.080;2024-01-16T11:28:58;100358.56;;;4.49;100.00
22688;BME280;11511;51.514;7.080;2024-01-16T11:31:28;100358.44;;;4.00;100.00
22688;BME280;11511;51.514;7.080;2024-01-16T11:33:54;100366.63;;;2.96;100.00
22688;BME280;11511;51.514;7.080;2024-01-16T11:39:05;100371.69;;;1.96;100.00
22688;BME280;11511;51.514;7.080;2024-01-16T11:47:03;100361.28;;;1.95;100.00
22688;BME280;11511;51.514;7.080;2024-01-16T11:49:28;100353.78;;;4.20;100.00
22688;BME280;11511;51.514;7.080;2024-01-16T11:51:57;100353.72;;;4.26;100.00
22688;BME280;11511;51.514;7.080;2024-01-16T11:54:23;100351.78;;;3.02;100.00
22688;BME280;11511;51.514;7.080;2024-01-16T11:59:57;100323.41;;;5.62;100.00
22688;BME280;11511;51.514;7.080;2024-01-16T12:02:26;100318.53;;;7.59;100.00
22688;BME280;11511;51.514;7.080;2024-01-16T12:04:54;100319.25;;;7.33;100.00
22688;BME280;11511;51.514;7.080;2024-01-16T12:07:22;100308.00;;;8.45;100.00
22688;BME280;11511;51.514;7.080;2024-01-16T12:09:47;100318.56;;;7.26;100.00
22688;BME280;11511;51.514;7.080;2024-01-16T12:12:14;100313.03;;;6.01;100.00
22688;BME280;11511;51.514;7.080;2024-01-16T12:14:40;100318.50;;;6.63;100.00
22688;BME280;11511;51.514;7.080;2024-01-16T12:17:11;100313.00;;;8.24;100.00
22688;BME280;11511;51.514;7.080;2024-01-16T12:19:37;100307.03;;;7.63;100.00
22688;BME280;11511;51.514;7.080;2024-01-16T12:22:07;100311.13;;;7.42;100.00
22688;BME280;11511;51.514;7.080;2024-01-16T12:24:33;100327.25;;;5.86;100.00
22688;BME280;11511;51.514;7.080;2024-01-16T12:26:59;100304.13;;;6.45;100.00
22688;BME280;11511;51.514;7.080;2024-01-16T12:29:27;100300.81;;;6.72;100.00
22688;BME280;11511;51.514;7.080;2024-01-16T12:34:53;100288.28;;;7.16;100.00
22688;BME280;11511;51.514;7.080;2024-01-16T12:37:18;100285.22;;;5.57;100.00
22688;BME280;11511;51.514;7.080;2024-01-16T12:39:45;100289.47;;;4.73;100.00
22688;BME280;11511;51.514;7.080;2024-01-16T12:42:10;100273.69;;;4.31;100.00
22688;BME280;11511;51.514;7.080;2024-01-16T12:44:38;100267.56;;;3.79;100.00
22688;BME280;11511;51.514;7.080;2024-01-16T12:47:03;100278.03;;;3.06;100.00
22688;BME280;11511;51.514;7.080;2024-01-16T12:49:30;100280.88;;;2.84;100.00
22688;BME280;11511;51.514;7.080;2024-01-16T12:54:39;100268.50;;;3.73;100.00
22688;BME280;11511;51.514;7.080;2024-01-16T12:57:05;100260.56;;;3.16;100.00
22688;BME280;11511;51.514;7.080;2024-01-16T12:59:32;100268.06;;;2.65;100.00